sensor_id;sensor_type;location;lat;lon;timestamp;temperature;humidity
46926;DHT22;32667;48.248;-1.700;2023-03-23T00:01:04;13.20;73.30
46926;DHT22;32667;48.248;-1.700;2023-03-23T00:03:30;13.20;73.30
46926;DHT22;32667;48.248;-1.700;2023-03-23T00:05:58;13.20;73.30
46926;DHT22;32667;48.248;-1.700;2023-03-23T00:08:36;13.20;73.30
46926;DHT22;32667;48.248;-1.700;2023-03-23T00:11:18;13.20;73.30
46926;DHT22;32667;48.248;-1.700;2023-03-23T00:13:49;13.20;73.20
46926;DHT22;32667;48.248;-1.700;2023-03-23T00:16:18;13.20;73.20
46926;DHT22;32667;48.248;-1.700;2023-03-23T00:18:49;13.20;73.20
46926;DHT22;32667;48.248;-1.700;2023-03-23T00:21:18;13.30;73.30
46926;DHT22;32667;48.248;-1.700;2023-03-23T00:23:45;13.20;73.10
46926;DHT22;32667;48.248;-1.700;2023-03-23T00:26:13;13.30;73.20
46926;DHT22;32667;48.248;-1.700;2023-03-23T00:28:39;13.20;73.10
46926;DHT22;32667;48.248;-1.700;2023-03-23T00:31:07;13.30;73.20
46926;DHT22;32667;48.248;-1.700;2023-03-23T00:33:35;13.30;73.20
46926;DHT22;32667;48.248;-1.700;2023-03-23T00:36:07;13.30;73.20
46926;DHT22;32667;48.248;-1.700;2023-03-23T00:38:38;13.30;73.20
46926;DHT22;32667;48.248;-1.700;2023-03-23T00:41:07;13.30;73.20
46926;DHT22;32667;48.248;-1.700;2023-03-23T00:43:33;13.30;73.10
46926;DHT22;32667;48.248;-1.700;2023-03-23T00:46:03;13.30;73.10
46926;DHT22;32667;48.248;-1.700;2023-03-23T00:48:36;13.30;73.20
46926;DHT22;32667;48.248;-1.700;2023-03-23T00:51:03;13.30;73.20
46926;DHT22;32667;48.248;-1.700;2023-03-23T00:53:35;13.30;73.10
46926;DHT22;32667;48.248;-1.700;2023-03-23T00:56:01;13.30;73.10
46926;DHT22;32667;48.248;-1.700;2023-03-23T00:58:27;13.30;73.10
46926;DHT22;32667;48.248;-1.700;2023-03-23T01:00:53;13.30;73.50
46926;DHT22;32667;48.248;-1.700;2023-03-23T01:03:18;13.30;73.20
46926;DHT22;32667;48.248;-1.700;2023-03-23T01:05:45;13.30;73.20
46926;DHT22;32667;48.248;-1.700;2023-03-23T01:08:13;13.30;73.20
46926;DHT22;32667;48.248;-1.700;2023-03-23T01:10:44;13.30;73.20
46926;DHT22;32667;48.248;-1.700;2023-03-23T01:13:11;13.30;73.20
46926;DHT22;32667;48.248;-1.700;2023-03-23T01:15:37;13.30;73.20
46926;DHT22;32667;48.248;-1.700;2023-03-23T01:18:04;13.30;73.30
46926;DHT22;32667;48.248;-1.700;2023-03-23T01:20:30;13.20;73.20
46926;DHT22;32667;48.248;-1.700;2023-03-23T01:23:00;13.20;73.20
46926;DHT22;32667;48.248;-1.700;2023-03-23T01:25:30;13.20;73.20
46926;DHT22;32667;48.248;-1.700;2023-03-23T01:27:57;13.20;73.20
46926;DHT22;32667;48.248;-1.700;2023-03-23T01:30:23;13.20;73.20
46926;DHT22;32667;48.248;-1.700;2023-03-23T01:32:49;13.20;73.20
46926;DHT22;32667;48.248;-1.700;2023-03-23T01:35:17;13.20;73.20
46926;DHT22;32667;48.248;-1.700;2023-03-23T01:37:43;13.20;73.20
46926;DHT22;32667;48.248;-1.700;2023-03-23T01:40:10;13.20;73.20
46926;DHT22;32667;48.248;-1.700;2023-03-23T01:42:37;13.20;73.20
46926;DHT22;32667;48.248;-1.700;2023-03-23T01:45:27;13.30;73.80
46926;DHT22;32667;48.248;-1.700;2023-03-23T01:47:58;13.30;73.20
46926;DHT22;32667;48.248;-1.700;2023-03-23T01:50:27;13.20;73.10
46926;DHT22;32667;48.248;-1.700;2023-03-23T01:52:55;13.20;73.20
46926;DHT22;32667;48.248;-1.700;2023-03-23T01:55:22;13.20;73.20
46926;DHT22;32667;48.248;-1.700;2023-03-23T01:57:49;13.20;73.20
46926;DHT22;32667;48.248;-1.700;2023-03-23T02:00:16;13.20;73.30
46926;DHT22;32667;48.248;-1.700;2023-03-23T02:02:43;13.20;73.20
46926;DHT22;32667;48.248;-1.700;2023-03-23T02:05:14;13.20;73.30
46926;DHT22;32667;48.248;-1.700;2023-03-23T02:07:44;13.30;73.30
46926;DHT22;32667;48.248;-1.700;2023-03-23T02:10:11;13.30;73.30
46926;DHT22;32667;48.248;-1.700;2023-03-23T02:12:36;13.30;73.30
46926;DHT22;32667;48.248;-1.700;2023-03-23T02:15:02;13.20;73.20
46926;DHT22;32667;48.248;-1.700;2023-03-23T02:17:55;13.30;73.30
46926;DHT22;32667;48.248;-1.700;2023-03-23T02:29:13;13.10;73.40
46926;DHT22;32667;48.248;-1.700;2023-03-23T02:34:19;12.90;73.60
46926;DHT22;32667;48.248;-1.700;2023-03-23T02:37:26;12.90;73.70
46926;DHT22;32667;48.248;-1.700;2023-03-23T02:39:52;12.80;73.80
46926;DHT22;32667;48.248;-1.700;2023-03-23T02:42:31;12.80;73.80
46926;DHT22;32667;48.248;-1.700;2023-03-23T02:44:59;12.70;73.80
46926;DHT22;32667;48.248;-1.700;2023-03-23T02:47:29;12.70;73.90
46926;DHT22;32667;48.248;-1.700;2023-03-23T02:49:57;12.70;73.80
46926;DHT22;32667;48.248;-1.700;2023-03-23T02:52:29;12.70;73.90
46926;DHT22;32667;48.248;-1.700;2023-03-23T02:54:57;12.70;73.90
46926;DHT22;32667;48.248;-1.700;2023-03-23T02:57:25;12.70;73.90
46926;DHT22;32667;48.248;-1.700;2023-03-23T02:59:55;12.70;73.90
46926;DHT22;32667;48.248;-1.700;2023-03-23T03:02:28;12.70;73.90
46926;DHT22;32667;48.248;-1.700;2023-03-23T03:13:07;12.70;73.80
46926;DHT22;32667;48.248;-1.700;2023-03-23T03:15:42;12.70;73.80
46926;DHT22;32667;48.248;-1.700;2023-03-23T03:18:16;12.60;73.80
46926;DHT22;32667;48.248;-1.700;2023-03-23T03:20:46;12.70;73.80
46926;DHT22;32667;48.248;-1.700;2023-03-23T03:23:14;12.70;73.90
46926;DHT22;32667;48.248;-1.700;2023-03-23T03:25:42;12.70;73.80
46926;DHT22;32667;48.248;-1.700;2023-03-23T03:28:18;12.70;73.80
46926;DHT22;32667;48.248;-1.700;2023-03-23T03:30:52;12.70;73.70
46926;DHT22;32667;48.248;-1.700;2023-03-23T03:33:20;12.70;73.70
46926;DHT22;32667;48.248;-1.700;2023-03-23T03:35:53;12.70;73.70
46926;DHT22;32667;48.248;-1.700;2023-03-23T03:38:28;12.70;73.60
46926;DHT22;32667;48.248;-1.700;2023-03-23T03:40:55;12.80;73.60
46926;DHT22;32667;48.248;-1.700;2023-03-23T03:43:21;12.80;73.70
46926;DHT22;32667;48.248;-1.700;2023-03-23T03:45:49;12.80;73.60
46926;DHT22;32667;48.248;-1.700;2023-03-23T03:48:15;12.80;73.60
46926;DHT22;32667;48.248;-1.700;2023-03-23T03:50:41;12.80;73.60
46926;DHT22;32667;48.248;-1.700;2023-03-23T03:53:06;12.90;73.90
46926;DHT22;32667;48.248;-1.700;2023-03-23T03:55:33;12.80;73.50
46926;DHT22;32667;48.248;-1.700;2023-03-23T03:58:04;12.80;73.50
46926;DHT22;32667;48.248;-1.700;2023-03-23T04:00:30;12.90;73.50
46926;DHT22;32667;48.248;-1.700;2023-03-23T04:02:56;12.80;73.60
46926;DHT22;32667;48.248;-1.700;2023-03-23T04:05:25;12.80;73.70
46926;DHT22;32667;48.248;-1.700;2023-03-23T04:07:54;12.80;73.70
46926;DHT22;32667;48.248;-1.700;2023-03-23T04:10:27;12.80;73.70
46926;DHT22;32667;48.248;-1.700;2023-03-23T04:12:55;12.80;73.90
46926;DHT22;32667;48.248;-1.700;2023-03-23T04:15:21;12.80;73.70
46926;DHT22;32667;48.248;-1.700;2023-03-23T04:17:47;12.80;73.70
46926;DHT22;32667;48.248;-1.700;2023-03-23T04:20:13;12.80;73.80
46926;DHT22;32667;48.248;-1.700;2023-03-23T04:22:49;12.80;73.70
46926;DHT22;32667;48.248;-1.700;2023-03-23T04:25:19;12.80;73.80
46926;DHT22;32667;48.248;-1.700;2023-03-23T04:27:53;12.80;73.80
46926;DHT22;32667;48.248;-1.700;2023-03-23T04:30:21;12.80;73.70
46926;DHT22;32667;48.248;-1.700;2023-03-23T04:32:48;12.80;73.60
46926;DHT22;32667;48.248;-1.700;2023-03-23T04:35:17;12.80;73.70
46926;DHT22;32667;48.248;-1.700;2023-03-23T04:37:43;12.80;73.70
46926;DHT22;32667;48.248;-1.700;2023-03-23T04:40:09;12.70;73.60
46926;DHT22;32667;48.248;-1.700;2023-03-23T04:42:41;12.80;73.70
46926;DHT22;32667;48.248;-1.700;2023-03-23T04:45:08;12.80;73.70
46926;DHT22;32667;48.248;-1.700;2023-03-23T04:47:37;12.80;73.60
46926;DHT22;32667;48.248;-1.700;2023-03-23T04:50:10;12.80;73.70
46926;DHT22;32667;48.248;-1.700;2023-03-23T04:52:42;12.80;73.70
46926;DHT22;32667;48.248;-1.700;2023-03-23T04:55:10;12.80;73.60
46926;DHT22;32667;48.248;-1.700;2023-03-23T04:57:36;12.80;73.60
46926;DHT22;32667;48.248;-1.700;2023-03-23T05:00:03;12.80;73.60
46926;DHT22;32667;48.248;-1.700;2023-03-23T05:02:35;12.90;73.60
46926;DHT22;32667;48.248;-1.700;2023-03-23T05:05:01;12.90;73.60
46926;DHT22;32667;48.248;-1.700;2023-03-23T05:07:27;12.90;73.60
46926;DHT22;32667;48.248;-1.700;2023-03-23T05:09:52;12.90;73.50
46926;DHT22;32667;48.248;-1.700;2023-03-23T05:12:18;13.00;73.60
46926;DHT22;32667;48.248;-1.700;2023-03-23T05:14:44;13.00;73.50
46926;DHT22;32667;48.248;-1.700;2023-03-23T05:17:10;13.00;73.50
46926;DHT22;32667;48.248;-1.700;2023-03-23T05:19:35;13.00;73.50
46926;DHT22;32667;48.248;-1.700;2023-03-23T05:22:04;13.00;73.60
46926;DHT22;32667;48.248;-1.700;2023-03-23T05:24:30;13.00;74.20
46926;DHT22;32667;48.248;-1.700;2023-03-23T05:27:00;12.90;73.50
46926;DHT22;32667;48.248;-1.700;2023-03-23T05:29:29;12.90;73.50
46926;DHT22;32667;48.248;-1.700;2023-03-23T05:31:56;13.00;73.60
46926;DHT22;32667;48.248;-1.700;2023-03-23T05:34:28;13.00;73.60
46926;DHT22;32667;48.248;-1.700;2023-03-23T05:36:55;13.00;73.50
46926;DHT22;32667;48.248;-1.700;2023-03-23T05:39:21;13.00;73.50
46926;DHT22;32667;48.248;-1.700;2023-03-23T05:41:47;13.00;73.50
46926;DHT22;32667;48.248;-1.700;2023-03-23T05:44:13;13.00;73.50
46926;DHT22;32667;48.248;-1.700;2023-03-23T05:46:39;13.00;73.50
46926;DHT22;32667;48.248;-1.700;2023-03-23T05:49:05;13.00;73.50
46926;DHT22;32667;48.248;-1.700;2023-03-23T05:51:31;13.00;73.50
46926;DHT22;32667;48.248;-1.700;2023-03-23T05:53:57;13.00;73.60
46926;DHT22;32667;48.248;-1.700;2023-03-23T05:56:23;13.00;73.60
46926;DHT22;32667;48.248;-1.700;2023-03-23T05:58:48;13.00;73.60
46926;DHT22;32667;48.248;-1.700;2023-03-23T06:01:14;13.00;73.60
46926;DHT22;32667;48.248;-1.700;2023-03-23T06:03:42;13.00;73.60
46926;DHT22;32667;48.248;-1.700;2023-03-23T06:06:10;13.00;73.60
46926;DHT22;32667;48.248;-1.700;2023-03-23T06:08:37;13.00;73.70
46926;DHT22;32667;48.248;-1.700;2023-03-23T06:11:05;13.00;73.70
46926;DHT22;32667;48.248;-1.700;2023-03-23T06:13:31;13.00;73.70
46926;DHT22;32667;48.248;-1.700;2023-03-23T06:15:57;12.90;73.60
46926;DHT22;32667;48.248;-1.700;2023-03-23T06:18:24;12.90;73.70
46926;DHT22;32667;48.248;-1.700;2023-03-23T06:20:50;12.90;73.70
46926;DHT22;32667;48.248;-1.700;2023-03-23T06:23:16;12.90;73.80
46926;DHT22;32667;48.248;-1.700;2023-03-23T06:25:43;12.90;73.80
46926;DHT22;32667;48.248;-1.700;2023-03-23T06:28:10;12.90;73.80
46926;DHT22;32667;48.248;-1.700;2023-03-23T06:30:36;12.90;73.70
46926;DHT22;32667;48.248;-1.700;2023-03-23T06:33:02;13.00;73.70
46926;DHT22;32667;48.248;-1.700;2023-03-23T06:35:31;13.00;73.70
46926;DHT22;32667;48.248;-1.700;2023-03-23T06:37:58;13.00;73.70
46926;DHT22;32667;48.248;-1.700;2023-03-23T06:40:27;13.00;73.70
46926;DHT22;32667;48.248;-1.700;2023-03-23T06:42:54;13.00;73.70
46926;DHT22;32667;48.248;-1.700;2023-03-23T06:45:21;13.00;73.60
46926;DHT22;32667;48.248;-1.700;2023-03-23T06:47:47;13.00;73.60
46926;DHT22;32667;48.248;-1.700;2023-03-23T06:50:18;13.00;73.60
46926;DHT22;32667;48.248;-1.700;2023-03-23T06:52:48;13.00;73.60
46926;DHT22;32667;48.248;-1.700;2023-03-23T06:55:15;13.10;73.60
46926;DHT22;32667;48.248;-1.700;2023-03-23T06:57:41;13.10;73.60
46926;DHT22;32667;48.248;-1.700;2023-03-23T07:00:09;13.10;73.50
46926;DHT22;32667;48.248;-1.700;2023-03-23T07:02:39;13.20;73.50
46926;DHT22;32667;48.248;-1.700;2023-03-23T07:05:07;13.20;73.50
46926;DHT22;32667;48.248;-1.700;2023-03-23T07:07:35;13.20;73.40
46926;DHT22;32667;48.248;-1.700;2023-03-23T07:10:02;13.20;73.40
46926;DHT22;32667;48.248;-1.700;2023-03-23T07:12:28;13.20;73.30
46926;DHT22;32667;48.248;-1.700;2023-03-23T07:14:54;13.30;73.30
46926;DHT22;32667;48.248;-1.700;2023-03-23T07:17:21;13.30;73.30
46926;DHT22;32667;48.248;-1.700;2023-03-23T07:19:47;13.30;73.30
46926;DHT22;32667;48.248;-1.700;2023-03-23T07:22:12;13.40;73.30
46926;DHT22;32667;48.248;-1.700;2023-03-23T07:24:38;13.40;73.20
46926;DHT22;32667;48.248;-1.700;2023-03-23T07:27:04;13.40;73.80
46926;DHT22;32667;48.248;-1.700;2023-03-23T07:29:30;13.50;73.20
46926;DHT22;32667;48.248;-1.700;2023-03-23T07:32:00;13.50;73.20
46926;DHT22;32667;48.248;-1.700;2023-03-23T07:34:27;13.50;73.00
46926;DHT22;32667;48.248;-1.700;2023-03-23T07:36:56;13.60;73.00
46926;DHT22;32667;48.248;-1.700;2023-03-23T07:39:22;13.60;73.00
46926;DHT22;32667;48.248;-1.700;2023-03-23T07:41:49;13.70;73.00
46926;DHT22;32667;48.248;-1.700;2023-03-23T07:44:15;13.70;72.90
46926;DHT22;32667;48.248;-1.700;2023-03-23T07:46:41;13.70;72.90
46926;DHT22;32667;48.248;-1.700;2023-03-23T07:49:09;13.80;72.90
46926;DHT22;32667;48.248;-1.700;2023-03-23T07:51:36;13.80;72.90
46926;DHT22;32667;48.248;-1.700;2023-03-23T07:54:04;13.80;72.90
46926;DHT22;32667;48.248;-1.700;2023-03-23T07:56:33;13.80;72.80
46926;DHT22;32667;48.248;-1.700;2023-03-23T07:58:59;13.80;72.80
46926;DHT22;32667;48.248;-1.700;2023-03-23T08:01:26;13.90;72.90
46926;DHT22;32667;48.248;-1.700;2023-03-23T08:03:52;13.90;72.80
46926;DHT22;32667;48.248;-1.700;2023-03-23T08:06:20;13.90;72.70
46926;DHT22;32667;48.248;-1.700;2023-03-23T08:08:47;14.00;72.80
46926;DHT22;32667;48.248;-1.700;2023-03-23T08:11:12;14.00;72.70
46926;DHT22;32667;48.248;-1.700;2023-03-23T08:13:44;14.00;72.70
46926;DHT22;32667;48.248;-1.700;2023-03-23T08:16:10;14.00;72.70
46926;DHT22;32667;48.248;-1.700;2023-03-23T08:18:37;14.00;72.70
46926;DHT22;32667;48.248;-1.700;2023-03-23T08:21:05;14.10;72.80
46926;DHT22;32667;48.248;-1.700;2023-03-23T08:23:33;14.10;72.70
46926;DHT22;32667;48.248;-1.700;2023-03-23T08:25:59;14.10;72.60
46926;DHT22;32667;48.248;-1.700;2023-03-23T08:28:26;14.10;72.70
46926;DHT22;32667;48.248;-1.700;2023-03-23T08:30:52;14.10;72.70
46926;DHT22;32667;48.248;-1.700;2023-03-23T08:33:18;14.20;72.70
46926;DHT22;32667;48.248;-1.700;2023-03-23T08:35:44;14.20;72.60
46926;DHT22;32667;48.248;-1.700;2023-03-23T08:38:11;14.30;72.70
46926;DHT22;32667;48.248;-1.700;2023-03-23T08:40:37;14.30;72.50
46926;DHT22;32667;48.248;-1.700;2023-03-23T08:43:04;14.30;72.50
46926;DHT22;32667;48.248;-1.700;2023-03-23T08:45:32;14.40;72.40
46926;DHT22;32667;48.248;-1.700;2023-03-23T08:47:58;14.40;72.30
46926;DHT22;32667;48.248;-1.700;2023-03-23T08:50:26;14.40;72.40
46926;DHT22;32667;48.248;-1.700;2023-03-23T08:52:55;14.40;72.40
46926;DHT22;32667;48.248;-1.700;2023-03-23T08:55:22;14.30;72.50
46926;DHT22;32667;48.248;-1.700;2023-03-23T08:57:48;14.30;72.60
46926;DHT22;32667;48.248;-1.700;2023-03-23T09:00:18;14.20;72.60
46926;DHT22;32667;48.248;-1.700;2023-03-23T09:02:54;14.20;72.80
46926;DHT22;32667;48.248;-1.700;2023-03-23T09:05:23;14.10;72.80
46926;DHT22;32667;48.248;-1.700;2023-03-23T09:07:54;14.10;72.90
46926;DHT22;32667;48.248;-1.700;2023-03-23T09:10:21;14.10;72.90
46926;DHT22;32667;48.248;-1.700;2023-03-23T09:12:48;14.10;72.90
46926;DHT22;32667;48.248;-1.700;2023-03-23T09:15:17;14.00;72.90
46926;DHT22;32667;48.248;-1.700;2023-03-23T09:17:45;14.00;73.10
46926;DHT22;32667;48.248;-1.700;2023-03-23T09:20:13;13.90;73.10
46926;DHT22;32667;48.248;-1.700;2023-03-23T09:22:42;14.00;73.20
46926;DHT22;32667;48.248;-1.700;2023-03-23T09:25:10;13.90;73.20
46926;DHT22;32667;48.248;-1.700;2023-03-23T09:27:40;14.00;73.20
46926;DHT22;32667;48.248;-1.700;2023-03-23T09:30:09;14.00;73.10
46926;DHT22;32667;48.248;-1.700;2023-03-23T09:32:36;14.10;73.00
46926;DHT22;32667;48.248;-1.700;2023-03-23T09:35:03;14.10;72.90
46926;DHT22;32667;48.248;-1.700;2023-03-23T09:37:30;14.20;72.80
46926;DHT22;32667;48.248;-1.700;2023-03-23T09:39:56;14.20;72.80
46926;DHT22;32667;48.248;-1.700;2023-03-23T09:42:39;14.20;72.80
46926;DHT22;32667;48.248;-1.700;2023-03-23T09:50:41;14.40;72.50
46926;DHT22;32667;48.248;-1.700;2023-03-23T09:55:39;14.50;72.40
46926;DHT22;32667;48.248;-1.700;2023-03-23T09:58:17;14.50;72.30
46926;DHT22;32667;48.248;-1.700;2023-03-23T10:00:59;14.60;72.30
46926;DHT22;32667;48.248;-1.700;2023-03-23T10:03:31;14.70;72.20
46926;DHT22;32667;48.248;-1.700;2023-03-23T10:05:58;14.70;72.20
46926;DHT22;32667;48.248;-1.700;2023-03-23T10:08:29;14.70;72.10
46926;DHT22;32667;48.248;-1.700;2023-03-23T10:11:03;14.70;72.20
46926;DHT22;32667;48.248;-1.700;2023-03-23T10:13:53;14.80;72.20
46926;DHT22;32667;48.248;-1.700;2023-03-23T10:16:29;14.90;72.10
46926;DHT22;32667;48.248;-1.700;2023-03-23T10:19:12;14.90;72.10
46926;DHT22;32667;48.248;-1.700;2023-03-23T10:21:50;14.90;71.90
46926;DHT22;32667;48.248;-1.700;2023-03-23T10:24:25;14.90;71.90
46926;DHT22;32667;48.248;-1.700;2023-03-23T10:36:13;15.00;72.00
46926;DHT22;32667;48.248;-1.700;2023-03-23T10:38:44;15.00;72.00
46926;DHT22;32667;48.248;-1.700;2023-03-23T10:41:13;15.10;71.90
46926;DHT22;32667;48.248;-1.700;2023-03-23T10:43:39;15.00;72.00
46926;DHT22;32667;48.248;-1.700;2023-03-23T10:48:54;15.00;72.00
46926;DHT22;32667;48.248;-1.700;2023-03-23T10:51:27;15.00;72.10
46926;DHT22;32667;48.248;-1.700;2023-03-23T10:53:58;15.00;72.20
46926;DHT22;32667;48.248;-1.700;2023-03-23T10:56:37;14.90;72.30
46926;DHT22;32667;48.248;-1.700;2023-03-23T10:59:21;14.90;72.40
46926;DHT22;32667;48.248;-1.700;2023-03-23T11:01:51;15.00;72.40
46926;DHT22;32667;48.248;-1.700;2023-03-23T11:04:18;15.00;72.30
46926;DHT22;32667;48.248;-1.700;2023-03-23T11:06:48;15.10;72.30
46926;DHT22;32667;48.248;-1.700;2023-03-23T11:09:21;15.10;72.10
46926;DHT22;32667;48.248;-1.700;2023-03-23T11:11:54;15.20;72.10
46926;DHT22;32667;48.248;-1.700;2023-03-23T11:17:01;15.30;71.80
46926;DHT22;32667;48.248;-1.700;2023-03-23T11:19:30;15.20;71.90
46926;DHT22;32667;48.248;-1.700;2023-03-23T11:22:26;15.20;72.00
46926;DHT22;32667;48.248;-1.700;2023-03-23T11:25:01;15.10;72.20
46926;DHT22;32667;48.248;-1.700;2023-03-23T11:27:30;15.00;72.40
46926;DHT22;32667;48.248;-1.700;2023-03-23T11:30:24;14.90;72.40
46926;DHT22;32667;48.248;-1.700;2023-03-23T11:32:51;14.80;72.70
46926;DHT22;32667;48.248;-1.700;2023-03-23T11:35:22;14.70;72.90
46926;DHT22;32667;48.248;-1.700;2023-03-23T11:37:56;14.60;73.10
46926;DHT22;32667;48.248;-1.700;2023-03-23T11:40:29;14.70;73.10
46926;DHT22;32667;48.248;-1.700;2023-03-23T11:45:37;14.70;72.90
46926;DHT22;32667;48.248;-1.700;2023-03-23T11:56:47;14.60;73.00
46926;DHT22;32667;48.248;-1.700;2023-03-23T11:59:17;14.60;73.00
46926;DHT22;32667;48.248;-1.700;2023-03-23T12:07:41;14.80;72.70
46926;DHT22;32667;48.248;-1.700;2023-03-23T12:10:17;14.90;72.50
46926;DHT22;32667;48.248;-1.700;2023-03-23T12:21:37;15.40;71.80
46926;DHT22;32667;48.248;-1.700;2023-03-23T12:24:18;15.50;71.80
46926;DHT22;32667;48.248;-1.700;2023-03-23T12:26:55;15.70;71.50
46926;DHT22;32667;48.248;-1.700;2023-03-23T12:38:51;16.10;71.00
46926;DHT22;32667;48.248;-1.700;2023-03-23T12:44:11;16.10;71.00
46926;DHT22;32667;48.248;-1.700;2023-03-23T12:54:44;16.20;71.20
46926;DHT22;32667;48.248;-1.700;2023-03-23T12:57:22;16.20;71.20
46926;DHT22;32667;48.248;-1.700;2023-03-23T13:02:34;16.20;71.20
46926;DHT22;32667;48.248;-1.700;2023-03-23T13:07:37;16.30;71.20
46926;DHT22;32667;48.248;-1.700;2023-03-23T13:10:26;16.40;71.10
46926;DHT22;32667;48.248;-1.700;2023-03-23T13:12:53;16.50;71.00
46926;DHT22;32667;48.248;-1.700;2023-03-23T13:23:47;16.50;71.00
46926;DHT22;32667;48.248;-1.700;2023-03-23T13:26:23;16.50;71.20
46926;DHT22;32667;48.248;-1.700;2023-03-23T13:29:01;16.50;71.20
46926;DHT22;32667;48.248;-1.700;2023-03-23T13:31:35;16.50;71.20
46926;DHT22;32667;48.248;-1.700;2023-03-23T13:34:10;16.60;71.10
46926;DHT22;32667;48.248;-1.700;2023-03-23T13:36:42;16.60;71.10
46926;DHT22;32667;48.248;-1.700;2023-03-23T13:49:59;16.60;71.10
46926;DHT22;32667;48.248;-1.700;2023-03-23T13:52:52;16.50;71.20
46926;DHT22;32667;48.248;-1.700;2023-03-23T13:55:38;16.40;71.30
46926;DHT22;32667;48.248;-1.700;2023-03-23T14:00:34;16.20;71.60
46926;DHT22;32667;48.248;-1.700;2023-03-23T14:05:45;16.10;72.00
46926;DHT22;32667;48.248;-1.700;2023-03-23T14:11:01;16.00;72.00
46926;DHT22;32667;48.248;-1.700;2023-03-23T14:16:14;15.90;72.10
46926;DHT22;32667;48.248;-1.700;2023-03-23T14:18:42;15.90;72.10
46926;DHT22;32667;48.248;-1.700;2023-03-23T14:24:20;15.90;72.10
46926;DHT22;32667;48.248;-1.700;2023-03-23T14:26:49;15.90;72.60
46926;DHT22;32667;48.248;-1.700;2023-03-23T14:29:18;15.80;72.00
46926;DHT22;32667;48.248;-1.700;2023-03-23T14:31:52;15.80;72.00
46926;DHT22;32667;48.248;-1.700;2023-03-23T14:34:25;15.70;72.20
46926;DHT22;32667;48.248;-1.700;2023-03-23T14:36:52;15.60;72.30
46926;DHT22;32667;48.248;-1.700;2023-03-23T14:39:29;15.50;72.40
46926;DHT22;32667;48.248;-1.700;2023-03-23T14:42:02;15.50;72.50
46926;DHT22;32667;48.248;-1.700;2023-03-23T14:44:39;15.50;72.60
46926;DHT22;32667;48.248;-1.700;2023-03-23T14:47:11;15.50;72.60
46926;DHT22;32667;48.248;-1.700;2023-03-23T14:49:41;15.40;72.40
46926;DHT22;32667;48.248;-1.700;2023-03-23T14:52:13;15.40;72.50
46926;DHT22;32667;48.248;-1.700;2023-03-23T14:54:40;15.30;72.60
46926;DHT22;32667;48.248;-1.700;2023-03-23T14:57:13;15.30;72.70
46926;DHT22;32667;48.248;-1.700;2023-03-23T14:59:41;15.20;72.80
46926;DHT22;32667;48.248;-1.700;2023-03-23T15:02:12;15.10;72.90
46926;DHT22;32667;48.248;-1.700;2023-03-23T15:04:38;15.10;73.00
46926;DHT22;32667;48.248;-1.700;2023-03-23T15:07:05;15.00;73.00
46926;DHT22;32667;48.248;-1.700;2023-03-23T15:09:32;14.90;73.00
46926;DHT22;32667;48.248;-1.700;2023-03-23T15:12:02;14.90;73.20
46926;DHT22;32667;48.248;-1.700;2023-03-23T15:14:52;14.80;73.30
46926;DHT22;32667;48.248;-1.700;2023-03-23T15:17:38;14.70;73.30
46926;DHT22;32667;48.248;-1.700;2023-03-23T15:23:22;14.70;73.30
46926;DHT22;32667;48.248;-1.700;2023-03-23T15:25:52;14.70;73.20
46926;DHT22;32667;48.248;-1.700;2023-03-23T15:28:29;14.60;73.30
46926;DHT22;32667;48.248;-1.700;2023-03-23T15:31:01;14.60;73.40
46926;DHT22;32667;48.248;-1.700;2023-03-23T15:33:34;14.60;73.40
46926;DHT22;32667;48.248;-1.700;2023-03-23T15:36:08;14.50;74.00
46926;DHT22;32667;48.248;-1.700;2023-03-23T15:38:36;14.50;73.40
46926;DHT22;32667;48.248;-1.700;2023-03-23T15:41:05;14.50;73.50
46926;DHT22;32667;48.248;-1.700;2023-03-23T15:43:48;14.50;73.40
46926;DHT22;32667;48.248;-1.700;2023-03-23T15:48:51;14.40;73.40
46926;DHT22;32667;48.248;-1.700;2023-03-23T15:51:21;14.40;73.40
46926;DHT22;32667;48.248;-1.700;2023-03-23T15:53:51;14.30;73.40
46926;DHT22;32667;48.248;-1.700;2023-03-23T15:56:17;14.30;73.40
46926;DHT22;32667;48.248;-1.700;2023-03-23T15:58:44;14.30;73.40
46926;DHT22;32667;48.248;-1.700;2023-03-23T16:03:48;14.20;73.50
46926;DHT22;32667;48.248;-1.700;2023-03-23T16:06:16;14.20;73.60
46926;DHT22;32667;48.248;-1.700;2023-03-23T16:08:44;14.20;73.60
46926;DHT22;32667;48.248;-1.700;2023-03-23T16:11:15;14.20;73.50
46926;DHT22;32667;48.248;-1.700;2023-03-23T16:13:41;14.20;73.60
46926;DHT22;32667;48.248;-1.700;2023-03-23T16:16:17;14.20;73.60
46926;DHT22;32667;48.248;-1.700;2023-03-23T16:18:46;14.20;73.50
46926;DHT22;32667;48.248;-1.700;2023-03-23T16:21:12;14.10;73.50
46926;DHT22;32667;48.248;-1.700;2023-03-23T16:23:39;14.10;73.50
46926;DHT22;32667;48.248;-1.700;2023-03-23T16:26:09;14.10;73.60
46926;DHT22;32667;48.248;-1.700;2023-03-23T16:28:35;14.00;73.50
46926;DHT22;32667;48.248;-1.700;2023-03-23T16:31:01;14.00;73.60
46926;DHT22;32667;48.248;-1.700;2023-03-23T16:33:27;14.00;73.60
46926;DHT22;32667;48.248;-1.700;2023-03-23T16:35:55;14.00;73.60
46926;DHT22;32667;48.248;-1.700;2023-03-23T16:38:24;14.00;74.20
46926;DHT22;32667;48.248;-1.700;2023-03-23T16:40:50;14.00;73.70
46926;DHT22;32667;48.248;-1.700;2023-03-23T16:43:16;14.00;73.70
46926;DHT22;32667;48.248;-1.700;2023-03-23T16:45:45;13.90;73.70
46926;DHT22;32667;48.248;-1.700;2023-03-23T16:48:13;13.90;73.70
46926;DHT22;32667;48.248;-1.700;2023-03-23T16:50:39;13.90;73.70
46926;DHT22;32667;48.248;-1.700;2023-03-23T16:53:06;13.90;73.70
46926;DHT22;32667;48.248;-1.700;2023-03-23T16:55:36;13.90;73.70
46926;DHT22;32667;48.248;-1.700;2023-03-23T16:58:03;13.90;73.70
46926;DHT22;32667;48.248;-1.700;2023-03-23T17:00:32;13.90;73.70
46926;DHT22;32667;48.248;-1.700;2023-03-23T17:02:57;13.90;73.70
46926;DHT22;32667;48.248;-1.700;2023-03-23T17:05:27;13.90;73.70
46926;DHT22;32667;48.248;-1.700;2023-03-23T17:07:55;13.90;73.70
46926;DHT22;32667;48.248;-1.700;2023-03-23T17:10:25;13.80;73.70
46926;DHT22;32667;48.248;-1.700;2023-03-23T17:12:52;13.70;73.70
46926;DHT22;32667;48.248;-1.700;2023-03-23T17:15:19;13.70;73.70
46926;DHT22;32667;48.248;-1.700;2023-03-23T17:17:45;13.70;73.80
46926;DHT22;32667;48.248;-1.700;2023-03-23T17:20:11;13.70;73.80
46926;DHT22;32667;48.248;-1.700;2023-03-23T17:22:38;13.60;73.80
46926;DHT22;32667;48.248;-1.700;2023-03-23T17:25:06;13.60;73.80
46926;DHT22;32667;48.248;-1.700;2023-03-23T17:27:33;13.70;73.90
46926;DHT22;32667;48.248;-1.700;2023-03-23T17:30:00;13.60;73.80
46926;DHT22;32667;48.248;-1.700;2023-03-23T17:32:25;13.70;73.90
46926;DHT22;32667;48.248;-1.700;2023-03-23T17:34:52;13.70;73.80
46926;DHT22;32667;48.248;-1.700;2023-03-23T17:37:24;13.70;73.80
46926;DHT22;32667;48.248;-1.700;2023-03-23T17:39:50;13.70;73.70
46926;DHT22;32667;48.248;-1.700;2023-03-23T17:42:16;13.70;73.70
46926;DHT22;32667;48.248;-1.700;2023-03-23T17:44:42;13.70;73.60